createdAt,value
2023-01-31T00:01:44.059Z,24.60
2023-01-31T00:04:12.619Z,25.40
2023-01-31T00:06:45.124Z,25.30
2023-01-31T00:09:13.331Z,25.90
2023-01-31T00:11:40.558Z,25.60
2023-01-31T00:14:08.826Z,25.20
2023-01-31T00:16:36.372Z,25.20
2023-01-31T00:19:04.491Z,25.00
2023-01-31T00:21:32.037Z,25.50
2023-01-31T00:24:00.259Z,25.70
2023-01-31T00:26:33.479Z,26.10
2023-01-31T00:29:02.602Z,25.80
2023-01-31T00:31:34.914Z,25.00
2023-01-31T00:34:02.713Z,25.00
2023-01-31T00:36:34.960Z,25.30
2023-01-31T00:39:04.468Z,25.60
2023-01-31T00:41:31.996Z,25.10
2023-01-31T00:43:59.628Z,25.60
2023-01-31T00:46:27.032Z,25.60
2023-01-31T00:48:56.333Z,25.30
2023-01-31T00:51:26.661Z,25.30
2023-01-31T00:53:54.722Z,26.20
2023-01-31T00:56:24.861Z,26.10
2023-01-31T00:58:52.700Z,26.10
2023-01-31T01:01:28.651Z,26.00
2023-01-31T01:03:57.384Z,25.30
2023-01-31T01:06:25.263Z,25.10
2023-01-31T01:08:53.176Z,25.10
2023-01-31T01:11:25.783Z,25.50
2023-01-31T01:13:53.286Z,25.90
2023-01-31T01:16:23.503Z,25.50
2023-01-31T01:18:51.165Z,25.80
2023-01-31T01:21:25.032Z,25.70
2023-01-31T01:23:53.168Z,25.70
2023-01-31T01:26:28.212Z,25.40
2023-01-31T01:28:56.523Z,25.80
2023-01-31T01:31:30.845Z,25.10
2023-01-31T01:34:07.458Z,24.90
2023-01-31T01:36:36.813Z,24.50
2023-01-31T01:39:11.800Z,24.20
2023-01-31T01:41:40.552Z,24.40
2023-01-31T01:44:46.430Z,24.70
2023-01-31T01:47:21.214Z,25.30
2023-01-31T01:49:53.069Z,25.70
2023-01-31T01:52:21.509Z,26.00
2023-01-31T01:55:00.520Z,26.20
2023-01-31T01:57:36.270Z,26.10
2023-01-31T02:00:20.175Z,25.50
2023-01-31T02:02:49.467Z,26.10
2023-01-31T02:05:21.672Z,26.00
2023-01-31T02:07:49.217Z,25.40
2023-01-31T02:10:47.280Z,25.20
2023-01-31T02:13:15.782Z,25.40
2023-01-31T02:15:43.029Z,25.40
2023-01-31T02:18:10.449Z,25.50
2023-01-31T02:20:38.941Z,25.60
2023-01-31T02:23:26.231Z,25.90
2023-01-31T02:26:11.721Z,25.30
2023-01-31T02:29:00.435Z,24.20
2023-01-31T02:31:46.206Z,24.40
2023-01-31T02:34:41.440Z,24.30
2023-01-31T02:37:14.531Z,23.90
2023-01-31T02:39:53.146Z,24.60
2023-01-31T02:42:28.438Z,24.40
2023-01-31T02:45:01.335Z,24.30
2023-01-31T02:47:54.947Z,24.50
2023-01-31T02:50:41.485Z,24.70
2023-01-31T02:53:46.727Z,24.50
2023-01-31T02:56:20.428Z,24.20
2023-01-31T02:59:03.475Z,24.50
2023-01-31T03:01:36.895Z,24.70
2023-01-31T03:04:09.946Z,24.30
2023-01-31T03:06:36.965Z,24.20
2023-01-31T03:09:10.353Z,24.10
2023-01-31T03:11:47.263Z,24.30
2023-01-31T03:14:27.383Z,24.20
2023-01-31T03:17:28.185Z,24.60
2023-01-31T03:20:06.902Z,25.10
2023-01-31T03:22:39.014Z,24.90
2023-01-31T03:25:09.830Z,24.90
2023-01-31T03:27:40.450Z,24.60
2023-01-31T03:30:18.716Z,24.90
2023-01-31T03:32:53.207Z,25.00
2023-01-31T03:35:24.418Z,25.20
2023-01-31T03:37:59.419Z,24.90
2023-01-31T03:40:39.163Z,25.30
2023-01-31T03:43:12.064Z,25.30
2023-01-31T03:45:50.948Z,26.00
2023-01-31T03:48:22.826Z,26.00
2023-01-31T03:50:58.984Z,25.30
2023-01-31T03:53:54.269Z,24.90
2023-01-31T03:56:27.409Z,24.90
2023-01-31T03:59:03.364Z,25.50
2023-01-31T04:01:34.980Z,25.20
2023-01-31T04:04:17.756Z,24.90
2023-01-31T04:06:44.956Z,24.80
2023-01-31T04:09:12.894Z,25.10
2023-01-31T04:11:41.921Z,25.20
2023-01-31T04:14:09.993Z,25.20
2023-01-31T04:16:36.998Z,25.10
2023-01-31T04:19:04.155Z,24.30
2023-01-31T04:21:34.324Z,24.80
2023-01-31T04:24:01.576Z,25.30
2023-01-31T04:26:28.715Z,25.10
2023-01-31T04:28:55.784Z,25.10
2023-01-31T04:31:22.920Z,25.10
2023-01-31T04:33:50.258Z,26.00
2023-01-31T04:36:17.270Z,25.70
2023-01-31T04:38:44.702Z,25.10
2023-01-31T04:41:11.845Z,24.70
2023-01-31T04:43:38.922Z,25.50
2023-01-31T04:46:06.136Z,25.20
2023-01-31T04:48:33.748Z,25.40
2023-01-31T04:51:02.297Z,25.00
2023-01-31T04:53:29.337Z,25.20
2023-01-31T04:55:56.555Z,25.30
2023-01-31T04:58:23.745Z,25.00
2023-01-31T05:00:50.908Z,24.30
2023-01-31T05:03:18.282Z,24.00
2023-01-31T05:05:47.573Z,24.90
2023-01-31T05:08:14.687Z,25.30
2023-01-31T05:10:43.167Z,24.80
2023-01-31T05:13:11.236Z,24.90
2023-01-31T05:15:39.848Z,25.00
2023-01-31T05:18:07.243Z,25.50
2023-01-31T05:20:39.934Z,25.60
2023-01-31T05:23:07.691Z,25.40
2023-01-31T05:25:36.149Z,25.70
2023-01-31T05:28:04.582Z,25.70
2023-01-31T05:30:32.489Z,25.20
2023-01-31T05:32:59.899Z,25.10
2023-01-31T05:35:27.121Z,25.70
2023-01-31T05:37:55.374Z,26.20
2023-01-31T05:40:23.315Z,26.60
2023-01-31T05:43:00.754Z,26.40
2023-01-31T05:45:29.794Z,26.20
2023-01-31T05:47:57.401Z,25.90
2023-01-31T05:50:25.226Z,26.40
2023-01-31T05:52:54.012Z,27.00
2023-01-31T05:55:22.146Z,26.80
2023-01-31T05:57:49.652Z,26.20
2023-01-31T06:00:17.517Z,26.40
2023-01-31T06:02:45.291Z,26.70
2023-01-31T06:05:12.779Z,26.40
2023-01-31T06:07:40.380Z,26.40
2023-01-31T06:10:09.583Z,26.40
2023-01-31T06:12:36.995Z,25.80
2023-01-31T06:15:05.165Z,25.50
2023-01-31T06:17:32.240Z,25.50
2023-01-31T06:19:59.363Z,26.00
2023-01-31T06:22:26.472Z,26.70
2023-01-31T06:24:53.539Z,26.50
2023-01-31T06:27:21.238Z,25.90
2023-01-31T06:29:48.493Z,25.70
2023-01-31T06:32:15.528Z,25.40
2023-01-31T06:34:42.707Z,25.40
2023-01-31T06:37:11.039Z,25.30
2023-01-31T06:39:38.112Z,25.20
2023-01-31T06:42:05.785Z,26.10
2023-01-31T06:44:33.645Z,26.00
2023-01-31T06:47:01.580Z,25.30
2023-01-31T06:49:28.998Z,25.00
2023-01-31T06:51:56.640Z,25.10
2023-01-31T06:54:23.813Z,24.70
2023-01-31T06:56:51.011Z,24.40
2023-01-31T06:59:18.217Z,24.30
2023-01-31T07:01:45.315Z,24.50
2023-01-31T07:04:12.535Z,24.60
2023-01-31T07:06:39.723Z,24.90
2023-01-31T07:09:07.662Z,24.20
2023-01-31T07:11:35.155Z,24.70
2023-01-31T07:14:02.373Z,25.10
2023-01-31T07:16:29.953Z,24.80
2023-01-31T07:18:57.391Z,24.70
2023-01-31T07:21:26.472Z,24.30
2023-01-31T07:23:53.524Z,24.30
2023-01-31T07:26:20.923Z,24.40
2023-01-31T07:28:48.334Z,24.90
2023-01-31T07:31:15.819Z,24.00
2023-01-31T07:33:43.069Z,23.60
2023-01-31T07:36:13.999Z,23.50
2023-01-31T07:38:42.126Z,23.90
2023-01-31T07:41:10.995Z,23.80
2023-01-31T07:43:38.856Z,24.60
2023-01-31T07:46:10.574Z,24.10
2023-01-31T07:48:38.248Z,23.80
2023-01-31T07:51:06.254Z,23.50
2023-01-31T07:53:36.660Z,23.40
2023-01-31T07:56:07.576Z,23.10
2023-01-31T07:58:36.180Z,22.70
2023-01-31T08:01:22.208Z,21.70
2023-01-31T08:03:49.325Z,21.70
2023-01-31T08:06:16.561Z,22.40
2023-01-31T08:08:44.735Z,22.80
2023-01-31T08:11:12.435Z,22.00
2023-01-31T08:13:40.156Z,22.10
2023-01-31T08:16:10.218Z,22.20
2023-01-31T08:18:38.305Z,21.80
2023-01-31T08:21:07.214Z,21.60
2023-01-31T08:23:34.930Z,22.30
2023-01-31T08:26:04.589Z,22.10
2023-01-31T08:28:32.804Z,22.20
2023-01-31T08:31:08.704Z,22.20
2023-01-31T08:33:38.610Z,22.50
2023-01-31T08:36:10.662Z,21.90
2023-01-31T08:38:38.399Z,22.20
2023-01-31T08:41:05.608Z,22.10
2023-01-31T08:43:39.375Z,21.50
2023-01-31T08:46:13.127Z,21.40
2023-01-31T08:48:42.101Z,21.20
2023-01-31T08:51:11.943Z,21.80
2023-01-31T08:53:46.746Z,22.40
2023-01-31T08:56:14.762Z,23.00
2023-01-31T08:58:43.969Z,23.40
2023-01-31T09:01:16.744Z,23.30
2023-01-31T09:03:45.526Z,23.60
2023-01-31T09:06:18.187Z,24.00
2023-01-31T09:08:45.543Z,23.80
2023-01-31T09:11:17.584Z,24.00
2023-01-31T09:13:46.140Z,24.40
2023-01-31T09:16:14.578Z,24.00
2023-01-31T09:18:44.959Z,23.30
2023-01-31T09:21:17.767Z,24.00
2023-01-31T09:23:46.583Z,23.70
2023-01-31T09:26:15.181Z,24.20
2023-01-31T09:28:43.567Z,24.30
2023-01-31T09:31:13.921Z,23.40
2023-01-31T09:33:41.467Z,23.50
2023-01-31T09:36:14.364Z,24.00
2023-01-31T09:38:41.681Z,23.60
2023-01-31T09:41:33.450Z,23.90
2023-01-31T09:44:16.582Z,25.00
2023-01-31T09:46:49.702Z,24.50
2023-01-31T09:50:03.023Z,23.60
2023-01-31T09:52:32.500Z,24.10
2023-01-31T09:55:00.025Z,23.90
2023-01-31T09:57:53.709Z,23.70
2023-01-31T10:00:27.537Z,23.70
2023-01-31T10:03:28.229Z,23.80
2023-01-31T10:06:06.107Z,23.90
2023-01-31T10:08:55.644Z,23.70
2023-01-31T10:11:29.862Z,23.40
2023-01-31T10:14:11.721Z,24.20
2023-01-31T10:16:50.994Z,24.50
2023-01-31T10:19:25.355Z,24.50
2023-01-31T10:21:58.617Z,24.50
2023-01-31T10:24:33.943Z,24.10
2023-01-31T10:27:06.032Z,24.20
2023-01-31T10:29:41.965Z,24.70
2023-01-31T10:32:34.023Z,24.80
2023-01-31T10:35:31.899Z,24.90
2023-01-31T10:38:17.772Z,25.20
2023-01-31T10:40:48.696Z,24.80
2023-01-31T10:43:32.208Z,24.70
2023-01-31T10:46:01.930Z,24.70
2023-01-31T10:48:30.003Z,24.90
2023-01-31T10:51:11.374Z,25.50
2023-01-31T10:53:50.714Z,25.50
2023-01-31T10:56:32.799Z,25.80
2023-01-31T10:59:02.823Z,26.80
2023-01-31T11:01:31.050Z,27.00
2023-01-31T11:03:58.750Z,26.60
2023-01-31T11:06:25.851Z,27.50
2023-01-31T11:09:04.853Z,28.30
2023-01-31T11:11:32.949Z,28.40
2023-01-31T11:14:06.494Z,27.50
2023-01-31T11:16:37.497Z,26.50
2023-01-31T11:19:31.336Z,27.20
2023-01-31T11:21:59.291Z,28.10
2023-01-31T11:24:33.399Z,27.30
2023-01-31T11:27:10.246Z,26.80
2023-01-31T11:29:46.061Z,27.30
2023-01-31T11:32:23.810Z,28.40
2023-01-31T11:35:22.686Z,28.40
2023-01-31T11:37:57.020Z,27.80
2023-01-31T11:40:30.714Z,27.00
2023-01-31T11:43:03.716Z,27.10
2023-01-31T11:45:39.498Z,27.80
2023-01-31T11:48:14.151Z,27.90
2023-01-31T11:50:44.472Z,29.30
2023-01-31T11:53:21.458Z,28.10
2023-01-31T11:55:50.348Z,28.00
2023-01-31T11:58:21.851Z,28.80
2023-01-31T12:00:58.948Z,28.30
2023-01-31T12:03:27.101Z,28.70
2023-01-31T12:06:46.607Z,28.70
2023-01-31T12:09:21.172Z,28.60
2023-01-31T12:12:08.902Z,27.80
2023-01-31T12:14:47.779Z,27.90
2023-01-31T12:17:17.927Z,28.70
2023-01-31T12:19:58.637Z,28.20
2023-01-31T12:22:36.142Z,28.80
2023-01-31T12:25:23.404Z,28.20
2023-01-31T12:28:12.746Z,28.10
2023-01-31T12:31:01.604Z,27.90
2023-01-31T12:33:31.399Z,28.70
2023-01-31T12:36:37.459Z,29.20
2023-01-31T12:39:15.531Z,29.20
2023-01-31T12:41:59.890Z,29.80
2023-01-31T12:44:33.215Z,29.90
2023-01-31T12:47:21.069Z,30.80
2023-01-31T12:50:20.672Z,30.50
2023-01-31T12:53:11.211Z,31.80
2023-01-31T12:56:22.093Z,32.70
2023-01-31T12:59:15.517Z,31.50
2023-01-31T13:01:52.593Z,31.50
2023-01-31T13:04:37.735Z,31.40
2023-01-31T13:07:11.761Z,31.90
2023-01-31T13:09:39.526Z,32.20
2023-01-31T13:12:10.045Z,32.00
2023-01-31T13:14:42.744Z,33.70
2023-01-31T13:17:13.802Z,35.40
2023-01-31T13:19:52.124Z,35.60
2023-01-31T13:22:51.059Z,36.50
2023-01-31T13:25:43.791Z,36.80
2023-01-31T13:28:25.523Z,36.70
2023-01-31T13:30:57.018Z,36.00
2023-01-31T13:33:24.487Z,35.80
2023-01-31T13:36:15.978Z,37.30
2023-01-31T13:38:44.984Z,37.40
2023-01-31T13:41:28.755Z,36.80
2023-01-31T13:43:57.801Z,36.40
2023-01-31T13:46:38.548Z,35.10
2023-01-31T13:49:27.527Z,35.60
2023-01-31T13:51:58.398Z,35.10
2023-01-31T13:54:42.075Z,35.70
2023-01-31T13:57:24.212Z,36.90
2023-01-31T14:00:00.859Z,36.20
2023-01-31T14:02:28.102Z,36.60
2023-01-31T14:05:24.435Z,37.40
2023-01-31T14:08:27.753Z,37.80
2023-01-31T14:10:59.981Z,38.30
2023-01-31T14:13:31.955Z,39.00
2023-01-31T14:15:59.939Z,38.40
2023-01-31T14:18:46.246Z,37.80
2023-01-31T14:21:44.931Z,37.90
2023-01-31T14:24:38.107Z,38.50
2023-01-31T14:27:18.503Z,39.00
2023-01-31T14:29:48.229Z,38.80
2023-01-31T14:32:41.873Z,37.70
2023-01-31T14:35:14.795Z,38.30
2023-01-31T14:37:59.631Z,38.40
2023-01-31T14:40:49.960Z,38.80
2023-01-31T14:43:16.972Z,37.90
2023-01-31T14:45:50.056Z,38.60
2023-01-31T14:48:54.017Z,38.20
2023-01-31T14:51:34.518Z,38.30
2023-01-31T14:54:16.635Z,39.30
2023-01-31T14:57:14.658Z,39.00
2023-01-31T14:59:53.259Z,39.30
2023-01-31T15:02:41.607Z,39.40
2023-01-31T15:05:14.637Z,40.10
2023-01-31T15:08:20.719Z,40.50
2023-01-31T15:11:13.064Z,39.90
2023-01-31T15:13:53.542Z,40.30
2023-01-31T15:16:24.721Z,39.80
2023-01-31T15:19:19.464Z,37.20
2023-01-31T15:21:53.258Z,36.00
2023-01-31T15:24:24.422Z,36.50
2023-01-31T15:26:53.500Z,37.00
2023-01-31T15:29:29.393Z,35.40
2023-01-31T15:32:02.852Z,35.20
2023-01-31T15:34:36.155Z,35.00
2023-01-31T15:37:09.252Z,34.70
2023-01-31T15:39:51.843Z,35.90
2023-01-31T15:42:24.394Z,35.70
2023-01-31T15:44:52.023Z,35.50
2023-01-31T15:47:23.809Z,36.30
2023-01-31T15:49:50.849Z,36.80
2023-01-31T15:52:21.111Z,35.90
2023-01-31T15:54:56.989Z,36.20
2023-01-31T15:57:38.807Z,36.10
2023-01-31T16:00:06.457Z,35.50
2023-01-31T16:02:33.764Z,35.50
2023-01-31T16:05:01.021Z,34.80
2023-01-31T16:07:31.649Z,34.00
2023-01-31T16:10:02.282Z,34.40
2023-01-31T16:12:34.828Z,35.50
2023-01-31T16:15:06.556Z,35.10
2023-01-31T16:17:34.240Z,34.10
2023-01-31T16:20:01.484Z,33.70
2023-01-31T16:22:31.544Z,35.30
2023-01-31T16:25:02.103Z,34.80
2023-01-31T16:27:35.339Z,34.30
2023-01-31T16:30:03.321Z,35.00
2023-01-31T16:32:41.270Z,35.10
2023-01-31T16:35:21.097Z,34.80
2023-01-31T16:38:02.147Z,34.10
2023-01-31T16:40:44.953Z,34.10
2023-01-31T16:43:25.189Z,33.50
2023-01-31T16:45:56.949Z,34.20
2023-01-31T16:48:24.122Z,34.10
2023-01-31T16:50:53.367Z,35.10
2023-01-31T16:53:34.801Z,34.10
2023-01-31T16:56:14.175Z,34.70
2023-01-31T16:58:53.940Z,35.50
2023-01-31T17:01:25.317Z,35.30
2023-01-31T17:04:12.132Z,34.90
2023-01-31T17:06:39.703Z,36.10
2023-01-31T17:09:08.904Z,36.50
2023-01-31T17:11:43.607Z,37.00
2023-01-31T17:14:11.694Z,37.60
2023-01-31T17:16:38.931Z,38.40
2023-01-31T17:19:06.212Z,38.70
2023-01-31T17:21:41.151Z,37.40
2023-01-31T17:24:17.747Z,36.60
2023-01-31T17:26:45.268Z,37.20
2023-01-31T17:29:12.754Z,38.30
2023-01-31T17:31:41.119Z,39.00
2023-01-31T17:34:14.388Z,39.40
2023-01-31T17:36:42.345Z,38.70
2023-01-31T17:39:09.498Z,38.40
2023-01-31T17:41:39.369Z,39.70
2023-01-31T17:44:08.158Z,38.90
2023-01-31T17:46:36.109Z,38.30
2023-01-31T17:49:03.259Z,38.10
2023-01-31T17:51:31.422Z,38.00
2023-01-31T17:53:58.542Z,37.60
2023-01-31T17:56:25.688Z,37.30
2023-01-31T17:58:52.705Z,38.20
2023-01-31T18:01:19.946Z,38.20
2023-01-31T18:03:47.173Z,37.80
2023-01-31T18:06:14.321Z,37.60
2023-01-31T18:08:41.379Z,37.20
2023-01-31T18:11:16.793Z,35.70
2023-01-31T18:13:44.787Z,34.40
2023-01-31T18:16:15.253Z,34.80
2023-01-31T18:18:44.125Z,35.30
2023-01-31T18:21:20.551Z,36.20
2023-01-31T18:23:51.848Z,36.40
2023-01-31T18:26:20.036Z,35.40
2023-01-31T18:28:47.620Z,35.50
2023-01-31T18:31:15.996Z,36.70
2023-01-31T18:33:45.351Z,37.20
2023-01-31T18:36:15.680Z,37.30
2023-01-31T18:38:45.363Z,36.40
2023-01-31T18:41:14.880Z,34.80
2023-01-31T18:43:43.128Z,34.70
2023-01-31T18:46:11.274Z,36.10
2023-01-31T18:48:39.286Z,35.20
2023-01-31T18:51:12.339Z,33.50
2023-01-31T18:53:41.729Z,32.60
2023-01-31T18:56:17.256Z,31.20
2023-01-31T18:58:45.453Z,32.30
2023-01-31T19:01:18.040Z,30.80
2023-01-31T19:03:47.076Z,30.20
2023-01-31T19:06:20.546Z,30.30
2023-01-31T19:08:49.216Z,30.40
2023-01-31T19:11:17.795Z,29.90
2023-01-31T19:13:48.360Z,30.90
2023-01-31T19:16:21.367Z,29.40
2023-01-31T19:18:49.226Z,28.80
2023-01-31T19:21:23.251Z,28.50
2023-01-31T19:23:53.603Z,28.80
2023-01-31T19:26:20.800Z,29.00
2023-01-31T19:28:48.459Z,28.60
2023-01-31T19:31:23.963Z,29.00
2023-01-31T19:33:53.465Z,29.80
2023-01-31T19:36:26.492Z,29.50
2023-01-31T19:38:53.766Z,29.20
2023-01-31T19:41:22.612Z,29.00
2023-01-31T19:43:54.197Z,28.50
2023-01-31T19:46:22.935Z,28.70
2023-01-31T19:48:50.088Z,28.30
2023-01-31T19:51:19.814Z,29.00
2023-01-31T19:53:48.244Z,29.00
2023-01-31T19:56:15.874Z,29.90
2023-01-31T19:58:43.897Z,30.20
2023-01-31T20:01:18.730Z,30.30
2023-01-31T20:03:46.537Z,30.80
2023-01-31T20:06:19.440Z,30.50
2023-01-31T20:08:50.719Z,30.00
2023-01-31T20:11:18.161Z,30.10
2023-01-31T20:13:45.641Z,30.80
2023-01-31T20:16:13.711Z,32.50
2023-01-31T20:18:41.797Z,32.20
2023-01-31T20:21:14.570Z,31.60
2023-01-31T20:23:46.711Z,31.80
2023-01-31T20:26:15.673Z,31.40
2023-01-31T20:28:44.515Z,31.20
2023-01-31T20:31:13.573Z,31.10
2023-01-31T20:33:40.938Z,31.70
2023-01-31T20:36:08.593Z,30.40
2023-01-31T20:38:37.897Z,29.50
2023-01-31T20:41:07.437Z,29.50
2023-01-31T20:43:35.445Z,30.00
2023-01-31T20:46:05.674Z,29.80
2023-01-31T20:48:33.081Z,29.30
2023-01-31T20:51:00.417Z,28.50
2023-01-31T20:53:30.801Z,28.60
2023-01-31T20:55:58.906Z,28.60
2023-01-31T20:58:27.644Z,28.40
2023-01-31T21:00:56.089Z,28.50
2023-01-31T21:03:24.145Z,28.20
2023-01-31T21:05:51.764Z,28.50
2023-01-31T21:08:20.049Z,29.60
2023-01-31T21:10:58.516Z,28.60
2023-01-31T21:13:31.699Z,28.10
2023-01-31T21:16:01.911Z,28.50
2023-01-31T21:18:31.676Z,28.80
2023-01-31T21:20:59.057Z,28.70
2023-01-31T21:23:26.094Z,27.90
2023-01-31T21:25:53.322Z,28.50
2023-01-31T21:28:20.400Z,28.50
2023-01-31T21:30:58.983Z,28.30
2023-01-31T21:33:26.451Z,28.50
2023-01-31T21:35:53.542Z,28.70
2023-01-31T21:38:21.150Z,27.80
2023-01-31T21:40:48.151Z,26.60
2023-01-31T21:43:16.341Z,26.50
2023-01-31T21:45:43.516Z,26.80
2023-01-31T21:48:29.755Z,27.70
2023-01-31T21:50:57.754Z,28.10
2023-01-31T21:53:27.500Z,29.30
2023-01-31T21:56:07.597Z,29.70
2023-01-31T21:58:35.911Z,29.50
2023-01-31T22:01:12.445Z,30.00
2023-01-31T22:03:44.581Z,29.30
2023-01-31T22:06:13.484Z,29.80
2023-01-31T22:08:40.826Z,30.30
2023-01-31T22:11:11.205Z,29.40
2023-01-31T22:13:38.808Z,28.80
2023-01-31T22:16:08.918Z,28.10
2023-01-31T22:18:37.344Z,28.20
2023-01-31T22:21:24.148Z,28.80
2023-01-31T22:23:53.416Z,29.50
2023-01-31T22:26:29.273Z,28.70
2023-01-31T22:28:59.329Z,27.70
2023-01-31T22:31:27.694Z,27.60
2023-01-31T22:33:56.151Z,27.90
2023-01-31T22:36:26.374Z,27.70
2023-01-31T22:38:54.180Z,28.50
2023-01-31T22:41:21.448Z,28.40
2023-01-31T22:43:50.554Z,28.20
2023-01-31T22:46:21.460Z,28.20
2023-01-31T22:48:51.947Z,28.10
2023-01-31T22:51:25.847Z,28.60
2023-01-31T22:53:54.247Z,28.90
2023-01-31T22:56:23.959Z,28.30
2023-01-31T22:58:59.290Z,28.70
2023-01-31T23:01:29.350Z,28.60
2023-01-31T23:04:00.586Z,29.80
2023-01-31T23:06:30.445Z,30.00
2023-01-31T23:08:58.028Z,30.00
2023-01-31T23:11:25.890Z,29.20
2023-01-31T23:13:53.144Z,29.00
2023-01-31T23:16:46.696Z,29.70
2023-01-31T23:19:14.699Z,28.50
2023-01-31T23:21:45.068Z,28.50
2023-01-31T23:24:17.065Z,29.50
2023-01-31T23:26:44.235Z,30.20
2023-01-31T23:29:11.790Z,30.60
2023-01-31T23:31:39.132Z,29.80
2023-01-31T23:34:07.697Z,28.70
2023-01-31T23:36:35.066Z,28.10
2023-01-31T23:39:02.250Z,28.10
2023-01-31T23:41:29.305Z,28.50
2023-01-31T23:43:56.315Z,28.20
2023-01-31T23:46:24.621Z,27.80
2023-01-31T23:48:51.683Z,27.40
2023-01-31T23:51:18.734Z,27.00
2023-01-31T23:53:45.888Z,26.80
2023-01-31T23:56:13.152Z,26.90
2023-01-31T23:58:40.189Z,27.60
